createdAt,value
2023-02-13T00:00:51.478Z,18.80
2023-02-13T00:03:27.814Z,10.30
2023-02-13T00:05:59.545Z,15.00
2023-02-13T00:08:31.280Z,18.20
2023-02-13T00:11:03.005Z,25.40
2023-02-13T00:13:35.805Z,19.00
2023-02-13T00:16:08.518Z,22.80
2023-02-13T00:18:40.710Z,17.40
2023-02-13T00:21:13.860Z,20.70
2023-02-13T00:23:45.520Z,15.40
2023-02-13T00:26:18.499Z,19.00
2023-02-13T00:31:23.220Z,17.40
2023-02-13T00:33:54.981Z,23.20
2023-02-13T00:36:26.731Z,20.80
2023-02-13T00:38:58.433Z,19.40
2023-02-13T00:41:30.108Z,21.70
2023-02-13T00:44:01.810Z,27.10
2023-02-13T00:46:36.587Z,17.60
2023-02-13T00:49:08.664Z,26.80
2023-02-13T00:51:40.340Z,21.40
2023-02-13T00:54:12.002Z,21.40
2023-02-13T00:56:43.715Z,18.40
2023-02-13T00:59:18.574Z,16.40
2023-02-13T01:01:50.302Z,19.10
2023-02-13T01:04:22.043Z,21.90
2023-02-13T01:06:53.803Z,19.60
2023-02-13T01:09:25.787Z,21.70
2023-02-13T01:11:57.521Z,17.60
2023-02-13T01:14:29.327Z,17.10
2023-02-13T01:17:01.051Z,15.80
2023-02-13T01:19:32.773Z,16.90
2023-02-13T01:22:04.813Z,18.00
2023-02-13T01:24:36.530Z,17.30
2023-02-13T01:27:08.236Z,26.50
2023-02-13T01:29:40.033Z,14.40
2023-02-13T01:32:11.976Z,14.30
2023-02-13T01:34:43.719Z,18.60
2023-02-13T01:37:16.434Z,16.90
2023-02-13T01:39:48.969Z,13.30
2023-02-13T01:42:26.468Z,24.70
2023-02-13T01:45:00.417Z,20.60
2023-02-13T01:47:40.333Z,22.20
2023-02-13T01:50:14.950Z,19.20
2023-02-13T01:52:50.789Z,20.70
2023-02-13T01:55:22.832Z,17.40
2023-02-13T01:57:58.334Z,19.60
2023-02-13T02:00:30.677Z,18.90
2023-02-13T02:03:06.459Z,21.40
2023-02-13T02:05:39.925Z,16.50
2023-02-13T02:08:16.013Z,19.00
2023-02-13T02:10:48.026Z,16.10
2023-02-13T02:13:22.102Z,19.20
2023-02-13T02:15:55.651Z,17.50
2023-02-13T02:18:27.748Z,20.70
2023-02-13T02:26:09.822Z,19.00
2023-02-13T02:29:08.841Z,15.50
2023-02-13T02:32:03.217Z,21.90
2023-02-13T02:34:37.436Z,21.50
2023-02-13T02:37:19.994Z,21.70
2023-02-13T02:39:57.640Z,20.40
2023-02-13T02:42:32.575Z,20.30
2023-02-13T02:45:11.012Z,20.70
2023-02-13T02:48:02.893Z,15.90
2023-02-13T02:50:35.805Z,15.60
2023-02-13T02:53:13.779Z,20.00
2023-02-13T02:55:45.790Z,13.20
2023-02-13T02:58:37.789Z,14.20
2023-02-13T03:01:26.556Z,21.80
2023-02-13T03:04:14.106Z,15.30
2023-02-13T03:06:45.908Z,17.40
2023-02-13T03:09:35.201Z,20.90
2023-02-13T03:12:22.652Z,21.30
2023-02-13T03:14:50.871Z,17.00
2023-02-13T03:17:37.842Z,18.40
2023-02-13T03:23:13.634Z,14.50
2023-02-13T03:26:00.570Z,23.20
2023-02-13T03:31:24.200Z,23.70
2023-02-13T03:33:58.282Z,18.80
2023-02-13T03:36:55.390Z,21.60
2023-02-13T03:39:27.001Z,23.60
2023-02-13T03:42:01.974Z,20.20
2023-02-13T03:44:32.975Z,22.00
2023-02-13T03:47:02.794Z,19.60
2023-02-13T03:49:52.181Z,20.50
2023-02-13T03:52:23.896Z,16.90
2023-02-13T03:55:13.843Z,20.70
2023-02-13T03:58:02.902Z,21.10
2023-02-13T04:00:35.899Z,15.60
2023-02-13T04:03:09.115Z,21.80
2023-02-13T04:05:40.956Z,18.70
2023-02-13T04:08:09.254Z,23.10
2023-02-13T04:10:45.305Z,24.20
2023-02-13T04:13:15.842Z,21.30
2023-02-13T04:15:47.989Z,23.80
2023-02-13T04:18:19.038Z,20.70
2023-02-13T04:20:47.568Z,17.80
2023-02-13T04:23:15.939Z,17.90
2023-02-13T04:25:48.867Z,17.50
2023-02-13T04:28:17.201Z,18.50
2023-02-13T04:30:45.497Z,21.80
2023-02-13T04:33:13.799Z,19.60
2023-02-13T04:35:42.124Z,22.20
2023-02-13T04:38:10.381Z,16.30
2023-02-13T04:40:38.640Z,17.90
2023-02-13T04:43:06.941Z,18.50
2023-02-13T04:45:35.198Z,18.10
2023-02-13T04:48:03.497Z,17.80
2023-02-13T04:50:31.800Z,14.20
2023-02-13T04:53:00.250Z,18.00
2023-02-13T04:55:28.965Z,24.70
2023-02-13T04:57:57.617Z,15.60
2023-02-13T05:02:54.459Z,19.90
2023-02-13T05:05:22.749Z,16.70
2023-02-13T05:07:51.010Z,17.00
2023-02-13T05:10:19.723Z,13.00
2023-02-13T05:12:49.031Z,17.80
2023-02-13T05:15:17.813Z,21.50
2023-02-13T05:20:14.185Z,16.70
2023-02-13T05:23:03.777Z,14.70
2023-02-13T05:25:32.357Z,17.80
2023-02-13T05:28:00.723Z,20.50
2023-02-13T05:30:29.027Z,14.10
2023-02-13T05:32:57.365Z,16.80
2023-02-13T05:35:25.801Z,16.90
2023-02-13T05:37:54.010Z,19.00
2023-02-13T05:40:22.973Z,21.40
2023-02-13T05:42:55.011Z,19.40
2023-02-13T05:45:23.253Z,16.20
2023-02-13T05:47:51.481Z,17.70
2023-02-13T05:50:20.708Z,18.30
2023-02-13T05:52:48.925Z,22.10
2023-02-13T05:55:17.444Z,20.70
2023-02-13T05:57:45.736Z,20.40
2023-02-13T06:00:17.148Z,17.40
2023-02-13T06:02:45.447Z,19.50
2023-02-13T06:05:13.748Z,20.80
2023-02-13T06:07:42.035Z,17.80
2023-02-13T06:10:11.348Z,20.10
2023-02-13T06:12:39.759Z,14.90
2023-02-13T06:15:09.320Z,15.70
2023-02-13T06:17:37.618Z,20.10
2023-02-13T06:20:09.128Z,17.60
2023-02-13T06:22:37.521Z,13.60
2023-02-13T06:25:07.094Z,15.20
2023-02-13T06:27:35.337Z,20.50
2023-02-13T06:30:04.066Z,13.80
2023-02-13T06:34:59.761Z,17.30
2023-02-13T06:37:28.029Z,17.60
2023-02-13T06:39:56.285Z,15.20
2023-02-13T06:42:24.535Z,16.90
2023-02-13T06:44:52.826Z,15.20
2023-02-13T06:47:21.087Z,17.50
2023-02-13T06:49:49.316Z,13.30
2023-02-13T06:52:19.241Z,20.70
2023-02-13T06:54:48.272Z,18.10
2023-02-13T06:57:16.826Z,17.90
2023-02-13T06:59:45.096Z,17.10
2023-02-13T07:02:13.575Z,17.50
2023-02-13T07:04:41.882Z,20.10
2023-02-13T07:07:10.155Z,18.00
2023-02-13T07:09:40.583Z,17.10
2023-02-13T07:12:09.173Z,18.60
2023-02-13T07:17:04.776Z,20.80
2023-02-13T07:19:33.118Z,19.10
2023-02-13T07:22:01.366Z,19.30
2023-02-13T07:24:29.631Z,20.30
2023-02-13T07:26:57.865Z,17.70
2023-02-13T07:29:26.172Z,15.00
2023-02-13T07:31:54.481Z,22.50
2023-02-13T07:34:22.791Z,15.30
2023-02-13T07:36:51.106Z,18.10
2023-02-13T07:39:19.689Z,17.10
2023-02-13T07:41:47.911Z,10.70
2023-02-13T07:44:17.899Z,13.90
2023-02-13T07:46:46.162Z,13.90
2023-02-13T07:49:14.521Z,14.80
2023-02-13T07:51:42.763Z,7.70
2023-02-13T07:54:11.112Z,15.70
2023-02-13T07:56:39.357Z,13.50
2023-02-13T07:59:08.100Z,6.30
2023-02-13T08:01:36.734Z,9.70
2023-02-13T08:04:05.411Z,11.70
2023-02-13T08:06:33.643Z,10.00
2023-02-13T08:09:20.014Z,10.40
2023-02-13T08:11:54.323Z,12.60
2023-02-13T08:14:23.534Z,10.30
2023-02-13T08:16:52.646Z,10.00
2023-02-13T08:19:21.014Z,10.50
2023-02-13T08:21:49.375Z,10.80
2023-02-13T08:24:17.787Z,8.50
2023-02-13T08:26:46.083Z,9.80
2023-02-13T08:29:14.354Z,9.20
2023-02-13T08:31:43.178Z,10.30
2023-02-13T08:34:11.421Z,5.30
2023-02-13T08:36:39.725Z,7.80
2023-02-13T08:39:09.812Z,8.80
2023-02-13T08:41:38.295Z,8.00
2023-02-13T08:44:06.894Z,10.50
2023-02-13T08:46:35.353Z,8.40
2023-02-13T08:51:32.336Z,6.80
2023-02-13T08:54:00.821Z,7.70
2023-02-13T08:56:29.162Z,6.10
2023-02-13T08:58:57.591Z,8.40
2023-02-13T09:03:53.614Z,7.50
2023-02-13T09:06:22.397Z,7.10
2023-02-13T09:08:50.754Z,5.20
2023-02-13T09:11:22.226Z,6.40
2023-02-13T09:13:52.302Z,6.60
2023-02-13T09:16:20.707Z,5.20
2023-02-13T09:21:16.909Z,6.60
2023-02-13T09:23:45.343Z,7.30
2023-02-13T09:28:42.042Z,5.20
2023-02-13T09:31:14.538Z,8.80
2023-02-13T09:33:43.598Z,7.80
2023-02-13T09:36:13.912Z,9.30
2023-02-13T09:38:43.400Z,5.10
2023-02-13T09:41:15.355Z,8.30
2023-02-13T09:43:48.489Z,7.50
2023-02-13T09:46:18.675Z,8.80
2023-02-13T09:48:50.976Z,6.10
2023-02-13T09:51:22.593Z,8.40
2023-02-13T09:53:53.500Z,5.20
2023-02-13T09:56:31.896Z,6.90
2023-02-13T09:59:03.757Z,8.10
2023-02-13T10:01:36.019Z,6.60
2023-02-13T10:04:29.351Z,6.80
2023-02-13T10:07:09.568Z,7.50
2023-02-13T10:09:43.119Z,9.60
2023-02-13T10:12:33.324Z,8.30
2023-02-13T10:15:10.753Z,4.40
2023-02-13T10:17:41.557Z,6.70
2023-02-13T10:20:22.304Z,6.40
2023-02-13T10:22:53.138Z,7.00
2023-02-13T10:25:24.373Z,6.00
2023-02-13T10:27:55.202Z,7.50
2023-02-13T10:30:26.895Z,6.10
2023-02-13T10:33:19.188Z,5.90
2023-02-13T10:35:51.893Z,5.70
2023-02-13T10:38:23.940Z,7.40
2023-02-13T10:41:05.347Z,8.00
2023-02-13T10:43:40.230Z,7.90
2023-02-13T10:46:15.075Z,7.50
2023-02-13T10:48:52.795Z,7.00
2023-02-13T10:51:27.604Z,6.30
2023-02-13T10:54:13.522Z,8.00
2023-02-13T10:56:43.953Z,6.20
2023-02-13T10:59:28.816Z,7.70
2023-02-13T11:01:57.882Z,6.60
2023-02-13T11:04:26.332Z,5.30
2023-02-13T11:06:57.830Z,6.00
2023-02-13T11:09:26.897Z,7.70
2023-02-13T11:11:55.224Z,6.70
2023-02-13T11:14:25.281Z,8.60
2023-02-13T11:16:57.937Z,9.30
2023-02-13T11:19:34.471Z,8.10
2023-02-13T11:22:05.079Z,7.90
2023-02-13T11:24:33.747Z,5.90
2023-02-13T11:27:08.138Z,6.90
2023-02-13T11:29:37.398Z,7.10
2023-02-13T11:32:19.857Z,9.70
2023-02-13T11:34:50.564Z,9.40
2023-02-13T11:37:22.836Z,7.90
2023-02-13T11:39:52.789Z,8.10
2023-02-13T11:42:26.504Z,8.30
2023-02-13T11:44:57.898Z,7.50
2023-02-13T11:47:38.004Z,8.80
2023-02-13T11:50:21.232Z,3.90
2023-02-13T11:52:56.891Z,7.40
2023-02-13T11:55:28.718Z,10.50
2023-02-13T11:57:59.254Z,8.80
2023-02-13T12:00:36.622Z,7.70
2023-02-13T12:03:25.827Z,8.70
2023-02-13T12:06:06.409Z,7.80
2023-02-13T12:08:36.513Z,9.30
2023-02-13T12:11:12.584Z,8.20
2023-02-13T12:13:40.921Z,10.80
2023-02-13T12:16:14.183Z,7.20
2023-02-13T12:18:45.953Z,8.10
2023-02-13T12:21:22.496Z,8.70
2023-02-13T12:23:57.654Z,7.70
2023-02-13T12:26:31.624Z,9.20
2023-02-13T12:29:19.904Z,8.70
2023-02-13T12:31:56.292Z,8.20
2023-02-13T12:34:55.627Z,10.50
2023-02-13T12:37:45.514Z,9.20
2023-02-13T12:40:34.062Z,7.20
2023-02-13T12:43:17.187Z,8.70
2023-02-13T12:45:49.419Z,11.90
2023-02-13T12:48:28.263Z,10.20
2023-02-13T12:51:09.052Z,9.30
2023-02-13T12:53:48.263Z,10.20
2023-02-13T12:56:31.751Z,9.10
2023-02-13T12:59:07.299Z,11.70
2023-02-13T13:01:57.488Z,6.60
2023-02-13T13:04:37.340Z,11.90
2023-02-13T13:07:22.754Z,10.20
2023-02-13T13:10:03.610Z,11.30
2023-02-13T13:12:40.221Z,9.80
2023-02-13T13:15:13.386Z,11.80
2023-02-13T13:17:54.284Z,8.00
2023-02-13T13:20:47.211Z,10.70
2023-02-13T13:25:52.388Z,13.40
2023-02-13T13:28:23.454Z,13.50
2023-02-13T13:30:53.031Z,10.90
2023-02-13T13:33:23.601Z,7.70
2023-02-13T13:35:58.643Z,10.20
2023-02-13T13:38:37.949Z,14.30
2023-02-13T13:41:11.527Z,5.90
2023-02-13T13:43:48.304Z,11.30
2023-02-13T13:46:19.565Z,10.20
2023-02-13T13:49:06.357Z,12.40
2023-02-13T13:54:21.275Z,12.90
2023-02-13T13:57:12.941Z,10.30
2023-02-13T14:00:16.705Z,10.10
2023-02-13T14:02:49.587Z,11.00
2023-02-13T14:05:28.154Z,13.90
2023-02-13T14:07:58.026Z,11.50
2023-02-13T14:11:02.412Z,15.20
2023-02-13T14:13:32.794Z,11.90
2023-02-13T14:16:01.523Z,14.90
2023-02-13T14:18:30.608Z,9.80
2023-02-13T14:21:01.066Z,9.70
2023-02-13T14:23:49.412Z,10.90
2023-02-13T14:26:30.057Z,11.40
2023-02-13T14:29:22.551Z,11.40
2023-02-13T14:32:07.348Z,12.10
2023-02-13T14:34:37.325Z,14.60
2023-02-13T14:37:22.429Z,17.30
2023-02-13T14:40:32.777Z,13.60
2023-02-13T14:43:23.472Z,13.30
2023-02-13T14:45:56.232Z,7.50
2023-02-13T14:48:35.087Z,10.20
2023-02-13T14:51:04.156Z,11.90
2023-02-13T14:53:35.455Z,11.60
2023-02-13T14:56:07.314Z,12.10
2023-02-13T14:58:37.154Z,13.70
2023-02-13T15:01:11.351Z,13.40
2023-02-13T15:03:46.345Z,11.20
2023-02-13T15:06:21.410Z,11.80
2023-02-13T15:08:51.621Z,9.40
2023-02-13T15:11:37.773Z,11.60
2023-02-13T15:14:25.100Z,9.60
2023-02-13T15:16:59.860Z,12.60
2023-02-13T15:19:28.579Z,13.80
2023-02-13T15:21:59.501Z,11.60
2023-02-13T15:24:31.431Z,16.50
2023-02-13T15:27:02.157Z,14.50
2023-02-13T15:29:47.662Z,12.10
2023-02-13T15:32:26.037Z,9.70
2023-02-13T15:34:54.679Z,12.20
2023-02-13T15:37:24.702Z,14.20
2023-02-13T15:39:53.199Z,12.10
2023-02-13T15:42:21.500Z,11.60
2023-02-13T15:44:51.769Z,12.40
2023-02-13T15:47:26.256Z,11.40
2023-02-13T15:49:54.758Z,9.40
2023-02-13T15:52:27.499Z,13.00
2023-02-13T15:54:56.414Z,13.40
2023-02-13T15:57:26.563Z,15.90
2023-02-13T15:59:56.271Z,13.90
2023-02-13T16:02:29.962Z,14.00
2023-02-13T16:04:59.167Z,12.20
2023-02-13T16:07:27.434Z,13.00
2023-02-13T16:10:16.077Z,12.80
2023-02-13T16:12:47.171Z,12.80
2023-02-13T16:15:18.863Z,16.50
2023-02-13T16:17:48.663Z,9.70
2023-02-13T16:20:22.691Z,10.60
2023-02-13T16:22:52.454Z,9.80
2023-02-13T16:25:24.947Z,11.80
2023-02-13T16:27:55.348Z,16.00
2023-02-13T16:30:33.288Z,10.80
2023-02-13T16:33:28.702Z,14.30
2023-02-13T16:35:58.851Z,10.90
2023-02-13T16:38:30.598Z,17.80
2023-02-13T16:41:00.563Z,13.00
2023-02-13T16:43:44.271Z,13.40
2023-02-13T16:46:33.710Z,13.30
2023-02-13T16:49:16.627Z,10.10
2023-02-13T16:51:56.425Z,10.40
2023-02-13T16:54:32.185Z,13.90
2023-02-13T16:57:02.568Z,14.20
2023-02-13T16:59:35.963Z,12.00
2023-02-13T17:02:13.735Z,10.70
2023-02-13T17:04:44.087Z,10.50
2023-02-13T17:07:15.361Z,12.40
2023-02-13T17:09:43.628Z,9.60
2023-02-13T17:12:16.626Z,15.60
2023-02-13T17:14:45.170Z,15.70
2023-02-13T17:17:15.814Z,10.00
2023-02-13T17:19:44.318Z,11.20
2023-02-13T17:22:30.141Z,12.70
2023-02-13T17:24:58.850Z,22.80
2023-02-13T17:27:27.684Z,33.70
2023-02-13T17:29:55.967Z,23.20
2023-02-13T17:32:26.644Z,34.30
2023-02-13T17:34:55.124Z,27.30
2023-02-13T17:37:24.752Z,13.70
2023-02-13T17:39:53.663Z,17.30
2023-02-13T17:42:25.048Z,16.10
2023-02-13T17:44:53.846Z,13.60
2023-02-13T17:47:22.765Z,13.00
2023-02-13T17:49:52.411Z,16.60
2023-02-13T17:52:27.671Z,15.00
2023-02-13T17:54:55.882Z,14.70
2023-02-13T17:57:24.510Z,11.10
2023-02-13T17:59:52.813Z,11.50
2023-02-13T18:02:22.938Z,12.10
2023-02-13T18:04:51.398Z,12.50
2023-02-13T18:07:20.659Z,6.50
2023-02-13T18:09:49.046Z,10.40
2023-02-13T18:12:20.579Z,10.00
2023-02-13T18:14:49.739Z,13.70
2023-02-13T18:17:18.798Z,12.40
2023-02-13T18:19:47.679Z,7.70
2023-02-13T18:22:15.920Z,17.50
2023-02-13T18:24:44.192Z,15.20
2023-02-13T18:27:12.624Z,15.10
2023-02-13T18:29:41.165Z,29.00
2023-02-13T18:34:39.465Z,31.60
2023-02-13T18:37:08.647Z,20.00
2023-02-13T18:39:36.942Z,14.50
2023-02-13T18:42:05.539Z,19.60
2023-02-13T18:44:33.926Z,13.70
2023-02-13T18:47:02.215Z,15.30
2023-02-13T18:49:30.614Z,13.20
2023-02-13T18:52:00.171Z,11.10
2023-02-13T18:54:28.451Z,9.90
2023-02-13T18:56:57.269Z,10.20
2023-02-13T18:59:25.894Z,13.80
2023-02-13T19:01:54.103Z,10.40
2023-02-13T19:04:22.388Z,9.80
2023-02-13T19:06:50.791Z,12.80
2023-02-13T19:09:19.103Z,8.30
2023-02-13T19:11:47.990Z,8.10
2023-02-13T19:14:16.215Z,9.80
2023-02-13T19:16:44.460Z,9.60
2023-02-13T19:19:12.718Z,6.30
2023-02-13T19:21:41.094Z,8.20
2023-02-13T19:24:13.880Z,14.50
2023-02-13T19:26:42.176Z,11.40
2023-02-13T19:29:10.612Z,12.90
2023-02-13T19:31:39.118Z,8.90
2023-02-13T19:34:07.708Z,8.10
2023-02-13T19:39:05.560Z,14.30
2023-02-13T19:41:33.949Z,16.00
2023-02-13T19:44:02.633Z,34.80
2023-02-13T19:48:59.063Z,10.40
2023-02-13T19:51:29.702Z,11.00
2023-02-13T19:53:59.568Z,10.40
2023-02-13T19:56:29.043Z,11.00
2023-02-13T19:58:57.396Z,10.70
2023-02-13T20:01:27.152Z,9.40
2023-02-13T20:03:56.051Z,10.40
2023-02-13T20:06:27.553Z,9.40
2023-02-13T20:08:59.061Z,13.40
2023-02-13T20:11:27.511Z,9.90
2023-02-13T20:13:56.974Z,11.50
2023-02-13T20:16:25.290Z,9.60
2023-02-13T20:18:53.707Z,11.60
2023-02-13T20:21:22.199Z,11.60
2023-02-13T20:23:51.221Z,13.00
2023-02-13T20:26:19.932Z,12.20
2023-02-13T20:28:48.291Z,12.70
2023-02-13T20:31:18.288Z,6.60
2023-02-13T20:33:47.110Z,13.30
2023-02-13T20:36:17.268Z,12.00
2023-02-13T20:38:45.803Z,9.40
2023-02-13T20:41:16.014Z,11.20
2023-02-13T20:43:44.318Z,9.60
2023-02-13T20:46:15.343Z,8.60
2023-02-13T20:48:45.242Z,9.40
2023-02-13T20:51:14.807Z,9.90
2023-02-13T20:53:48.632Z,11.00
2023-02-13T20:56:18.447Z,7.40
2023-02-13T20:58:48.260Z,12.80
2023-02-13T21:01:17.916Z,10.30
2023-02-13T21:03:49.354Z,13.80
2023-02-13T21:06:17.611Z,11.20
2023-02-13T21:08:45.956Z,10.30
2023-02-13T21:11:14.372Z,8.80
2023-02-13T21:13:42.745Z,10.10
2023-02-13T21:16:13.482Z,13.30
2023-02-13T21:18:43.052Z,9.50
2023-02-13T21:21:12.322Z,14.10
2023-02-13T21:23:40.581Z,10.00
2023-02-13T21:26:10.629Z,12.90
2023-02-13T21:28:39.404Z,11.10
2023-02-13T21:31:08.921Z,8.20
2023-02-13T21:33:37.206Z,10.40
2023-02-13T21:36:08.866Z,6.60
2023-02-13T21:38:38.065Z,9.80
2023-02-13T21:41:07.670Z,9.70
2023-02-13T21:43:37.297Z,8.40
2023-02-13T21:46:11.082Z,10.80
2023-02-13T21:48:40.169Z,10.70
2023-02-13T21:51:10.270Z,7.80
2023-02-13T21:53:39.329Z,7.30
2023-02-13T21:56:08.990Z,7.20
2023-02-13T21:58:38.365Z,14.60
2023-02-13T22:01:23.867Z,10.90
2023-02-13T22:06:21.262Z,11.00
2023-02-13T22:08:49.613Z,10.70
2023-02-13T22:11:18.160Z,8.80
2023-02-13T22:16:15.288Z,7.90
2023-02-13T22:18:44.576Z,10.10
2023-02-13T22:21:15.005Z,10.10
2023-02-13T22:23:44.399Z,10.70
2023-02-13T22:26:16.476Z,6.60
2023-02-13T22:28:44.827Z,12.10
2023-02-13T22:31:14.044Z,7.40
2023-02-13T22:33:42.990Z,7.20
2023-02-13T22:36:13.835Z,9.60
2023-02-13T22:38:42.086Z,8.50
2023-02-13T22:41:12.340Z,7.40
2023-02-13T22:43:41.014Z,8.50
2023-02-13T22:46:11.780Z,12.80
2023-02-13T22:48:40.761Z,7.20
2023-02-13T22:51:10.677Z,9.50
2023-02-13T22:53:39.026Z,9.20
2023-02-13T22:56:09.058Z,9.80
2023-02-13T22:58:37.710Z,10.10
2023-02-13T23:01:11.576Z,10.00
2023-02-13T23:03:39.937Z,9.50
2023-02-13T23:08:37.306Z,5.50
2023-02-13T23:11:26.114Z,8.60
2023-02-13T23:13:54.493Z,9.00
2023-02-13T23:16:23.725Z,7.90
2023-02-13T23:18:53.344Z,8.00
2023-02-13T23:21:22.530Z,11.40
2023-02-13T23:23:51.121Z,8.90
2023-02-13T23:28:46.769Z,6.70
2023-02-13T23:31:15.158Z,11.60
2023-02-13T23:36:11.050Z,6.60
2023-02-13T23:38:39.382Z,10.50
2023-02-13T23:41:08.812Z,9.40
2023-02-13T23:43:37.125Z,9.00
2023-02-13T23:46:06.251Z,6.30
2023-02-13T23:48:34.661Z,9.50
2023-02-13T23:51:03.173Z,9.20
2023-02-13T23:55:59.049Z,6.40
2023-02-13T23:58:27.367Z,8.80
